Impacts TAF Board
For situational awareness. Not to be used for flight planning purposes.
IDs:

KGEG - Spokane Intl, WA, US

Issued at 1723 UTC 26 Feb 2020
Updated at 2215 UTC 26 Feb 2020
Potential Impact None Slight Moderate High
Time2153Z 26/23Z 27/00Z 27/01Z 27/02Z 27/03Z 27/04Z 27/05Z 27/06Z 27/07Z 27/08Z 27/09Z 27/10Z 27/11Z>>
Type OBS PRVL PRVL PRVL PRVL PRVL PRVL PRVL PRVL PRVL PRVL PRVL PRVL PRVL
VIS 10 >6 >6 >6 >6 >6 >6 >6 >6 >6 >6 >6 >6 >6
CIG 250 50 250 250 250 250 250 250 250 250 250 100 100 100
Cover BKN OVC BKN BKN BKN BKN BKN BKN BKN BKN BKN BKN BKN BKN
FltCat VFR VFR VFR VFR VFR VFR VFR VFR VFR VFR VFR VFR VFR VFR
WX -- -- -- -- -- -- -- -- -- -- -- -- -- --
WDir 260 VRB 210 210 210 210 210 210 210 210 210 140 140 140
WSpd 10 4 5 5 5 5 5 5 5 5 5 4 4 4
WGst -- -- -- -- -- -- -- -- -- -- -- -- -- --
Raw TAF
KGEG 261723Z 2618/2718 VRB04KT P6SM BKN050 OVC090
  FM270000 21005KT P6SM SCT120 BKN250
  FM270900 14004KT P6SM BKN100
  FM271200 VRB03KT P6SM BKN035
  FM271500 VRB04KT P6SM SCT010 BKN020


Raw METAR
KGEG 262153Z 26010KT 10SM SCT045 SCT110 BKN250 08/M02 A3034 RMK AO2 SLP287 T00781017
KGEG 262053Z 23010G17KT 10SM FEW050 SCT110 BKN250 08/M03 A3034 RMK AO2 SLP287 T00781028 58008
KGEG 261953Z 20010KT 10SM BKN050 BKN250 07/M03 A3034 RMK AO2 SLP289 T00671033

METAR Board
Radar Display
Forecast Discussion
For situational awareness. Not to be used for flight planning purposes.